Time;durP1;ratioP1;P1;durP2;ratioP2;P2;SDS_P1;SDS_P2;PMS_P1;PMS_P2;Temp;Humidity;BMP_temperature;BMP_pressure;BME280_temperature;BME280_humidity;BME280_pressure;Samples;Min_cycle;Max_cycle;Signal;HPM_P1;HPM_P2
2022/10/06 00:02:03;;;;;;;8.18;5.43;;;;;;;;;;5055192;28;20044;-88
2022/10/06 00:04:30;;;;;;;5.60;5.10;;;;;;;;;;5073563;28;20060;-87
2022/10/06 00:06:57;;;;;;;6.63;5.78;;;;;;;;;;5073600;28;20052;-88
2022/10/06 00:09:24;;;;;;;9.98;5.50;;;;;;;;;;5055714;28;20048;-87
2022/10/06 00:11:51;;;;;;;6.65;4.70;;;;;;;;;;5055757;28;20048;-87
2022/10/06 00:14:19;;;;;;;14.05;5.50;;;;;;;;;;5055550;28;20044;-86
2022/10/06 00:16:46;;;;;;;11.60;6.15;;;;;;;;;;5055741;28;20044;-88
2022/10/06 00:19:13;;;;;;;8.85;5.68;;;;;;;;;;5055828;28;20508;-87
2022/10/06 00:21:40;;;;;;;7.00;5.60;;;;;;;;;;5055941;28;20053;-87
2022/10/06 00:24:07;;;;;;;6.47;5.57;;;;;;;;;;5073194;28;20049;-86
2022/10/06 00:26:34;;;;;;;7.70;5.68;;;;;;;;;;5073234;28;20052;-87
2022/10/06 00:29:02;;;;;;;6.50;5.50;;;;;;;;;;5055729;28;20048;-88
2022/10/06 00:31:29;;;;;;;10.88;6.47;;;;;;;;;;5055990;28;20126;-90
2022/10/06 00:33:56;;;;;;;6.10;4.43;;;;;;;;;;5073386;28;20475;-87
2022/10/06 00:36:23;;;;;;;6.43;5.05;;;;;;;;;;5055250;28;20056;-87
2022/10/06 00:38:51;;;;;;;6.45;5.75;;;;;;;;;;5055515;28;20049;-87
2022/10/06 00:41:18;;;;;;;6.78;5.60;;;;;;;;;;5073173;28;20048;-87
2022/10/06 00:43:52;;;;;;;7.35;5.68;;;;;;;;;;5055549;28;20040;-87
2022/10/06 00:46:44;;;;;;;10.10;5.47;;;;;;;;;;5055465;28;20488;-88
2022/10/06 00:49:22;;;;;;;6.45;5.88;;;;;;;;;;5055696;28;20048;-87
2022/10/06 00:52:03;;;;;;;16.48;6.45;;;;;;;;;;5073153;28;20052;-91
2022/10/06 00:54:34;;;;;;;7.95;5.80;;;;;;;;;;5072977;28;20049;-88
2022/10/06 00:57:02;;;;;;;14.00;6.75;;;;;;;;;;5055436;28;20044;-88
2022/10/06 00:59:29;;;;;;;6.72;5.80;;;;;;;;;;5055576;28;20078;-88
2022/10/06 01:02:01;;;;;;;10.05;6.18;;;;;;;;;;5055119;28;20048;-88
2022/10/06 01:04:33;;;;;;;13.40;6.30;;;;;;;;;;5055323;28;20500;-89
2022/10/06 01:07:00;;;;;;;7.18;5.88;;;;;;;;;;5055430;28;20063;-88
2022/10/06 01:09:28;;;;;;;6.78;6.18;;;;;;;;;;5055271;28;20044;-88
2022/10/06 01:12:00;;;;;;;8.85;6.35;;;;;;;;;;5056390;28;20607;-88
2022/10/06 01:14:27;;;;;;;10.98;5.82;;;;;;;;;;5076721;28;20044;-88
2022/10/06 01:17:10;;;;;;;9.95;5.55;;;;;;;;;;5076853;28;20048;-89
2022/10/06 01:19:56;;;;;;;13.43;5.63;;;;;;;;;;5059751;28;20044;-87
2022/10/06 01:22:34;;;;;;;7.82;6.15;;;;;;;;;;5058925;28;20056;-87
2022/10/06 01:25:02;;;;;;;7.72;6.03;;;;;;;;;;5076460;28;20052;-87
2022/10/06 01:27:30;;;;;;;8.77;5.38;;;;;;;;;;5059043;28;20053;-87
2022/10/06 01:29:58;;;;;;;5.20;4.70;;;;;;;;;;5076688;28;20051;-86
2022/10/06 01:32:26;;;;;;;7.82;5.30;;;;;;;;;;5059120;28;20044;-88
2022/10/06 01:34:53;;;;;;;6.28;5.65;;;;;;;;;;5076411;28;20060;-87
2022/10/06 01:37:20;;;;;;;10.57;6.03;;;;;;;;;;5058672;28;20060;-87
2022/10/06 01:39:48;;;;;;;11.23;5.80;;;;;;;;;;5058652;28;20051;-87
2022/10/06 01:42:15;;;;;;;18.90;6.38;;;;;;;;;;5076315;28;20056;-86
2022/10/06 01:44:43;;;;;;;10.73;5.88;;;;;;;;;;5076310;28;20044;-88
2022/10/06 01:47:10;;;;;;;6.20;5.57;;;;;;;;;;5058456;28;20053;-87
2022/10/06 01:49:37;;;;;;;8.70;6.13;;;;;;;;;;5058761;28;20051;-89
2022/10/06 01:52:04;;;;;;;9.45;6.80;;;;;;;;;;5058777;28;20049;-88
2022/10/06 01:54:32;;;;;;;9.93;7.72;;;;;;;;;;5075954;28;20140;-87
2022/10/06 01:56:59;;;;;;;11.13;7.07;;;;;;;;;;5058445;28;20053;-88
2022/10/06 01:59:26;;;;;;;7.93;5.85;;;;;;;;;;5057950;28;20477;-88
2022/10/06 02:01:53;;;;;;;7.18;5.57;;;;;;;;;;5057522;28;20515;-88
2022/10/06 02:04:21;;;;;;;9.98;6.72;;;;;;;;;;5075328;28;20048;-89
2022/10/06 02:06:49;;;;;;;12.10;8.40;;;;;;;;;;5058410;28;20041;-88
2022/10/06 02:09:16;;;;;;;8.55;7.03;;;;;;;;;;5058091;28;20045;-87
2022/10/06 02:11:43;;;;;;;11.38;8.07;;;;;;;;;;5075872;28;20048;-87
2022/10/06 02:14:12;;;;;;;8.43;7.57;;;;;;;;;;5057821;28;20071;-88
2022/10/06 02:16:39;;;;;;;17.30;8.15;;;;;;;;;;5058015;28;20048;-87
2022/10/06 02:19:06;;;;;;;6.90;6.15;;;;;;;;;;5057861;28;20139;-88
2022/10/06 02:21:34;;;;;;;6.05;5.43;;;;;;;;;;5058063;28;20052;-88
2022/10/06 02:24:01;;;;;;;6.75;5.00;;;;;;;;;;5074518;28;20072;-88
2022/10/06 02:26:29;;;;;;;6.13;5.10;;;;;;;;;;5075243;28;20052;-88
2022/10/06 02:28:56;;;;;;;8.68;6.18;;;;;;;;;;5057758;28;20049;-89
2022/10/06 02:31:24;;;;;;;5.28;4.50;;;;;;;;;;5057291;28;20067;-88
2022/10/06 02:33:51;;;;;;;4.65;4.20;;;;;;;;;;5057470;28;20080;-88
2022/10/06 02:36:18;;;;;;;4.97;4.47;;;;;;;;;;5057843;28;20075;-89
2022/10/06 02:38:45;;;;;;;7.35;4.43;;;;;;;;;;5075181;28;20059;-88
2022/10/06 02:41:12;;;;;;;7.72;4.10;;;;;;;;;;5075229;28;20444;-88
2022/10/06 02:43:39;;;;;;;7.32;4.43;;;;;;;;;;5057164;28;20048;-87
2022/10/06 02:46:10;;;;;;;5.85;5.07;;;;;;;;;;5074175;28;20052;-88
2022/10/06 02:48:38;;;;;;;5.18;4.60;;;;;;;;;;5057545;28;20461;-87
2022/10/06 02:51:07;;;;;;;5.93;4.30;;;;;;;;;;5057563;28;20055;-89
2022/10/06 02:53:37;;;;;;;8.35;5.07;;;;;;;;;;5057665;28;20079;-88
2022/10/06 02:56:06;;;;;;;6.90;5.10;;;;;;;;;;5074694;28;20138;-87
2022/10/06 02:58:33;;;;;;;5.63;5.10;;;;;;;;;;5056756;28;20052;-88
2022/10/06 03:01:01;;;;;;;11.07;6.78;;;;;;;;;;5057282;28;20048;-88
2022/10/06 03:03:28;;;;;;;6.20;5.65;;;;;;;;;;5056926;28;20485;-87
2022/10/06 03:06:20;;;;;;;5.95;5.00;;;;;;;;;;5057200;28;20048;-88
2022/10/06 03:08:51;;;;;;;8.30;5.47;;;;;;;;;;5074344;28;20059;-87
2022/10/06 03:11:19;;;;;;;5.88;5.18;;;;;;;;;;5056711;28;20056;-87
2022/10/06 03:13:48;;;;;;;10.73;6.15;;;;;;;;;;5056767;28;20071;-88
2022/10/06 03:16:17;;;;;;;5.38;4.88;;;;;;;;;;5056829;28;20053;-86
2022/10/06 03:18:48;;;;;;;8.05;4.97;;;;;;;;;;5074190;28;20106;-88
2022/10/06 03:21:23;;;;;;;8.65;4.82;;;;;;;;;;5056405;28;20466;-88
2022/10/06 03:23:52;;;;;;;11.82;5.07;;;;;;;;;;5056812;28;20048;-88
2022/10/06 03:26:21;;;;;;;9.38;4.45;;;;;;;;;;5074171;28;20127;-88
2022/10/06 03:28:48;;;;;;;6.40;4.70;;;;;;;;;;5056500;28;20059;-87
2022/10/06 03:31:16;;;;;;;8.65;4.90;;;;;;;;;;5073733;28;20052;-87
2022/10/06 03:33:44;;;;;;;7.90;4.55;;;;;;;;;;5056212;28;20067;-87
2022/10/06 03:36:12;;;;;;;5.15;4.75;;;;;;;;;;5056107;28;20053;-88
2022/10/06 03:38:39;;;;;;;7.93;5.50;;;;;;;;;;5056311;28;20048;-87
2022/10/06 03:41:08;;;;;;;9.80;5.70;;;;;;;;;;5056449;28;20056;-87
2022/10/06 03:43:36;;;;;;;8.05;5.57;;;;;;;;;;5074209;28;20056;-88
2022/10/06 03:46:04;;;;;;;7.53;5.18;;;;;;;;;;5055791;28;20079;-88
2022/10/06 03:48:33;;;;;;;12.63;5.90;;;;;;;;;;5055959;28;20048;-87
2022/10/06 03:51:01;;;;;;;6.93;5.00;;;;;;;;;;5073911;28;20397;-88
2022/10/06 03:53:28;;;;;;;8.52;5.35;;;;;;;;;;5056137;28;20048;-87
2022/10/06 03:56:10;;;;;;;8.30;4.30;;;;;;;;;;5055856;28;20067;-87
2022/10/06 03:58:39;;;;;;;9.27;5.03;;;;;;;;;;5055597;28;20068;-88
2022/10/06 04:01:16;;;;;;;6.70;4.30;;;;;;;;;;5055924;28;20052;-87
2022/10/06 04:03:51;;;;;;;10.15;6.60;;;;;;;;;;5057302;28;20515;-87
2022/10/06 04:06:19;;;;;;;34.38;18.13;;;;;;;;;;5073361;28;20044;-87
2022/10/06 04:08:47;;;;;;;22.05;13.85;;;;;;;;;;5073807;28;20409;-87
2022/10/06 04:11:16;;;;;;;12.95;10.95;;;;;;;;;;5073323;28;20052;-86
2022/10/06 04:13:44;;;;;;;14.02;9.07;;;;;;;;;;5073469;28;20055;-87
2022/10/06 04:16:12;;;;;;;15.23;9.35;;;;;;;;;;5055629;28;20045;-86
2022/10/06 04:18:40;;;;;;;12.07;7.93;;;;;;;;;;5055934;28;20091;-87
2022/10/06 04:21:07;;;;;;;8.20;6.10;;;;;;;;;;5055944;28;20059;-87
2022/10/06 04:23:35;;;;;;;13.25;6.18;;;;;;;;;;5055766;28;20477;-87
2022/10/06 04:26:05;;;;;;;6.95;5.70;;;;;;;;;;5055444;28;20075;-87
2022/10/06 04:28:32;;;;;;;8.48;6.63;;;;;;;;;;5055853;28;20106;-88
2022/10/06 04:31:01;;;;;;;10.07;5.50;;;;;;;;;;5056299;28;20420;-86
2022/10/06 04:33:32;;;;;;;8.32;5.70;;;;;;;;;;5073330;28;20056;-88
2022/10/06 04:36:04;;;;;;;8.90;5.60;;;;;;;;;;5055383;28;20435;-86
2022/10/06 04:38:32;;;;;;;6.85;6.15;;;;;;;;;;5073152;28;20064;-86
2022/10/06 04:41:16;;;;;;;6.75;4.57;;;;;;;;;;5055345;28;20543;-87
2022/10/06 04:43:47;;;;;;;6.25;4.18;;;;;;;;;;5072849;28;20504;-86
2022/10/06 04:46:15;;;;;;;8.20;4.70;;;;;;;;;;5072835;28;20059;-86
2022/10/06 04:49:02;;;;;;;6.72;3.63;;;;;;;;;;5062442;28;20048;-86
2022/10/06 04:51:31;;;;;;;10.57;5.00;;;;;;;;;;5059838;28;20135;-87
2022/10/06 04:53:59;;;;;;;6.30;4.97;;;;;;;;;;5059249;28;20049;-87
2022/10/06 04:56:28;;;;;;;6.30;5.25;;;;;;;;;;5059382;28;20056;-87
2022/10/06 04:58:56;;;;;;;5.10;4.70;;;;;;;;;;5059666;28;20110;-87
2022/10/06 05:01:23;;;;;;;5.95;5.07;;;;;;;;;;5059179;28;20051;-87
2022/10/06 05:03:51;;;;;;;9.48;4.70;;;;;;;;;;5059272;28;20048;-87
2022/10/06 05:06:18;;;;;;;6.70;4.88;;;;;;;;;;5076667;28;20488;-86
2022/10/06 05:08:50;;;;;;;7.68;4.97;;;;;;;;;;5059061;28;20052;-87
2022/10/06 05:11:17;;;;;;;7.82;5.03;;;;;;;;;;5058826;28;20400;-88
2022/10/06 05:13:53;;;;;;;4.43;4.03;;;;;;;;;;5059951;28;20126;-88
2022/10/06 05:16:21;;;;;;;6.53;4.20;;;;;;;;;;5058661;28;20074;-88
2022/10/06 05:18:48;;;;;;;7.38;4.28;;;;;;;;;;5076764;28;20071;-88
2022/10/06 05:21:17;;;;;;;6.72;4.20;;;;;;;;;;5059173;28;20048;-88
2022/10/06 05:23:45;;;;;;;7.18;4.47;;;;;;;;;;5058935;28;20052;-88
2022/10/06 05:26:14;;;;;;;4.97;3.97;;;;;;;;;;5058546;28;20051;-88
2022/10/06 05:28:41;;;;;;;8.90;4.40;;;;;;;;;;5076415;28;20053;-87
2022/10/06 05:31:11;;;;;;;4.82;3.58;;;;;;;;;;5076513;28;20052;-88
2022/10/06 05:33:39;;;;;;;6.70;4.00;;;;;;;;;;5076480;28;20048;-88
2022/10/06 05:36:10;;;;;;;5.47;3.78;;;;;;;;;;5076274;28;20488;-88
2022/10/06 05:38:37;;;;;;;6.68;4.65;;;;;;;;;;5076205;28;20059;-88
2022/10/06 05:41:12;;;;;;;8.27;5.03;;;;;;;;;;5058217;28;20048;-87
2022/10/06 05:43:40;;;;;;;6.00;5.43;;;;;;;;;;5058622;28;20052;-88
2022/10/06 05:46:11;;;;;;;8.00;5.50;;;;;;;;;;5058448;28;20051;-88
2022/10/06 05:48:38;;;;;;;5.47;4.97;;;;;;;;;;5058560;28;20562;-88
2022/10/06 05:51:06;;;;;;;8.10;6.30;;;;;;;;;;5075924;28;20041;-88
2022/10/06 05:53:34;;;;;;;10.80;6.38;;;;;;;;;;5058093;28;20056;-88
2022/10/06 05:56:06;;;;;;;15.43;8.82;;;;;;;;;;5058066;28;20060;-88
2022/10/06 05:58:34;;;;;;;33.05;19.60;;;;;;;;;;5074952;28;20052;-89
2022/10/06 06:01:12;;;;;;;20.90;16.38;;;;;;;;;;5075756;28;20520;-88
2022/10/06 06:03:40;;;;;;;28.20;20.70;;;;;;;;;;5058403;28;20056;-88
2022/10/06 06:06:18;;;;;;;24.42;16.73;;;;;;;;;;5058085;28;20044;-88
2022/10/06 06:08:45;;;;;;;14.07;12.63;;;;;;;;;;5058135;28;20048;-88
2022/10/06 06:11:12;;;;;;;15.52;12.77;;;;;;;;;;5058062;28;20123;-88
2022/10/06 06:13:39;;;;;;;20.23;13.35;;;;;;;;;;5058093;28;20058;-88
2022/10/06 06:16:07;;;;;;;23.85;20.25;;;;;;;;;;5057875;28;20049;-88
2022/10/06 06:18:36;;;;;;;30.23;26.63;;;;;;;;;;5075428;28;20063;-88
2022/10/06 06:21:05;;;;;;;19.50;13.43;;;;;;;;;;5075563;28;20045;-87
2022/10/06 06:23:39;;;;;;;9.93;7.93;;;;;;;;;;5057886;28;20453;-88
2022/10/06 06:26:08;;;;;;;11.88;8.98;;;;;;;;;;5057810;28;20049;-88
2022/10/06 06:28:40;;;;;;;15.23;10.05;;;;;;;;;;5075204;28;20053;-88
2022/10/06 06:31:09;;;;;;;18.77;8.55;;;;;;;;;;5075114;28;20098;-87
2022/10/06 06:33:37;;;;;;;25.15;18.05;;;;;;;;;;5057940;28;20048;-88
2022/10/06 06:36:13;;;;;;;31.30;20.40;;;;;;;;;;5057633;28;20053;-88
2022/10/06 06:38:41;;;;;;;32.00;21.48;;;;;;;;;;5075250;28;20048;-88
2022/10/06 06:41:15;;;;;;;16.00;12.18;;;;;;;;;;5057430;28;20405;-88
2022/10/06 06:43:42;;;;;;;13.95;10.23;;;;;;;;;;5075246;28;20059;-90
2022/10/06 06:46:14;;;;;;;10.65;7.55;;;;;;;;;;5074964;28;20394;-89
2022/10/06 06:48:41;;;;;;;37.83;8.43;;;;;;;;;;5057472;28;20464;-87
2022/10/06 06:51:12;;;;;;;31.88;4.57;;;;;;;;;;5057610;28;20044;-88
2022/10/06 06:53:39;;;;;;;8.20;2.25;;;;;;;;;;5074820;28;20124;-87
2022/10/06 06:56:07;;;;;;;8.95;2.88;;;;;;;;;;5056819;28;20492;-88
2022/10/06 06:58:35;;;;;;;13.63;1.50;;;;;;;;;;5075247;28;20053;-88
2022/10/06 07:01:12;;;;;;;2.80;1.65;;;;;;;;;;5057010;28;20048;-88
2022/10/06 07:03:40;;;;;;;1.73;0.70;;;;;;;;;;5057426;28;20114;-89
2022/10/06 07:06:27;;;;;;;1.65;0.70;;;;;;;;;;5059203;28;20564;-89
2022/10/06 07:08:55;;;;;;;0.93;0.80;;;;;;;;;;5057404;28;20560;-88
2022/10/06 07:11:23;;;;;;;1.85;0.40;;;;;;;;;;5056730;28;20056;-88
2022/10/06 07:13:52;;;;;;;1.02;0.60;;;;;;;;;;5057175;28;20492;-88
2022/10/06 07:27:27;;;;;;;2.67;0.55;;;;;;;;;;5074124;28;20489;-89
2022/10/06 07:29:55;;;;;;;0.90;0.50;;;;;;;;;;5074123;28;20055;-88
2022/10/06 07:32:24;;;;;;;1.52;0.80;;;;;;;;;;5056779;28;20051;-88
2022/10/06 07:34:51;;;;;;;2.28;1.05;;;;;;;;;;5056550;28;20047;-88
2022/10/06 07:37:19;;;;;;;1.67;1.10;;;;;;;;;;5073901;28;20091;-88
2022/10/06 07:39:49;;;;;;;3.05;1.90;;;;;;;;;;5074066;28;20067;-87
2022/10/06 07:42:17;;;;;;;3.00;1.38;;;;;;;;;;5073824;28;20056;-88
2022/10/06 07:45:37;;;;;;;2.10;0.65;;;;;;;;;;5073704;28;20059;-88
2022/10/06 07:47:38;;;;;;;14.27;1.20;;;;;;;;;;5073629;28;20500;-88
2022/10/06 07:50:06;;;;;;;9.65;1.10;;;;;;;;;;5056456;28;20052;-87
2022/10/06 07:52:37;;;;;;;9.07;1.25;;;;;;;;;;5056356;28;20230;-88
2022/10/06 07:55:05;;;;;;;7.00;0.68;;;;;;;;;;5056312;28;20106;-87
2022/10/06 07:57:34;;;;;;;7.53;0.90;;;;;;;;;;5055984;28;20484;-87
2022/10/06 08:00:04;;;;;;;25.50;1.55;;;;;;;;;;5055549;28;20052;-89
2022/10/06 08:02:31;;;;;;;7.68;0.80;;;;;;;;;;5055849;28;20364;-88
2022/10/06 08:05:02;;;;;;;66.47;4.97;;;;;;;;;;5056594;28;20053;-88
2022/10/06 08:07:30;;;;;;;6.88;0.75;;;;;;;;;;5073531;28;20080;-89
2022/10/06 08:09:57;;;;;;;16.70;1.38;;;;;;;;;;5056334;28;20063;-88
2022/10/06 08:12:33;;;;;;;4.22;1.20;;;;;;;;;;5056073;28;20056;-90
2022/10/06 08:15:02;;;;;;;1.83;0.57;;;;;;;;;;5073565;28;20082;-89
2022/10/06 08:17:35;;;;;;;3.78;0.60;;;;;;;;;;5056897;28;20048;-89
2022/10/06 08:20:03;;;;;;;8.15;0.75;;;;;;;;;;5073487;28;20048;-89
2022/10/06 08:22:30;;;;;;;9.90;0.73;;;;;;;;;;5072694;28;20041;-89
2022/10/06 08:24:57;;;;;;;5.10;0.90;;;;;;;;;;5055980;28;20044;-89
2022/10/06 08:27:33;;;;;;;1.23;0.57;;;;;;;;;;5056654;28;20064;-90
2022/10/06 08:30:01;;;;;;;2.25;0.80;;;;;;;;;;5055749;28;20456;-92
2022/10/06 08:32:28;;;;;;;1.05;0.50;;;;;;;;;;5056381;28;20481;-89
2022/10/06 08:34:55;;;;;;;2.28;0.43;;;;;;;;;;5073725;28;20052;-88
2022/10/06 08:37:25;;;;;;;1.98;0.50;;;;;;;;;;5056070;28;20052;-88
2022/10/06 08:39:53;;;;;;;1.65;0.63;;;;;;;;;;5055691;28;20057;-89
2022/10/06 08:42:41;;;;;;;0.93;0.40;;;;;;;;;;5055621;28;20139;-89
2022/10/06 08:45:14;;;;;;;2.63;0.55;;;;;;;;;;5072993;28;20060;-90
2022/10/06 08:47:49;;;;;;;1.42;0.25;;;;;;;;;;5055891;28;20473;-90
2022/10/06 08:50:16;;;;;;;2.42;0.60;;;;;;;;;;5055787;28;20048;-90
2022/10/06 08:53:00;;;;;;;0.65;0.38;;;;;;;;;;5055497;28;20055;-89
2022/10/06 08:55:38;;;;;;;3.60;0.63;;;;;;;;;;5073171;28;20049;-89
2022/10/06 08:58:12;;;;;;;1.15;0.50;;;;;;;;;;5073450;28;20136;-90
2022/10/06 09:00:40;;;;;;;7.35;1.45;;;;;;;;;;5073158;28;20047;-90
2022/10/06 09:03:14;;;;;;;0.50;0.40;;;;;;;;;;5055183;28;20052;-88
2022/10/06 09:05:41;;;;;;;3.22;0.70;;;;;;;;;;5073143;28;20135;-88
2022/10/06 09:08:33;;;;;;;0.88;0.20;;;;;;;;;;5055807;28;20518;-88
2022/10/06 09:11:03;;;;;;;3.13;0.75;;;;;;;;;;5055464;28;20424;-89
2022/10/06 09:13:34;;;;;;;6.75;0.88;;;;;;;;;;5055478;28;20060;-89
2022/10/06 09:16:06;;;;;;;0.50;0.50;;;;;;;;;;5055276;28;20048;-89
2022/10/06 09:18:39;;;;;;;1.77;0.52;;;;;;;;;;5056056;28;20123;-87
2022/10/06 09:21:40;;;;;;;3.78;0.50;;;;;;;;;;5058717;28;20048;-88
2022/10/06 09:24:12;;;;;;;1.33;0.55;;;;;;;;;;5055521;28;20040;-91
2022/10/06 09:26:42;;;;;;;4.13;0.57;;;;;;;;;;5055617;28;20056;-88
2022/10/06 09:29:10;;;;;;;2.22;0.70;;;;;;;;;;5055108;28;20054;-89
2022/10/06 09:31:38;;;;;;;2.10;0.68;;;;;;;;;;5055565;28;20067;-86
2022/10/06 09:34:17;;;;;;;2.63;0.82;;;;;;;;;;5057944;28;20147;-88
2022/10/06 09:37:09;;;;;;;1.08;0.50;;;;;;;;;;5059025;28;20047;-87
2022/10/06 09:39:38;;;;;;;4.68;0.60;;;;;;;;;;5051980;28;20052;-85
2022/10/06 09:42:11;;;;;;;3.13;0.75;;;;;;;;;;5058565;28;20044;-87
2022/10/06 09:44:46;;;;;;;3.35;0.88;;;;;;;;;;5058367;28;20064;-87
2022/10/06 09:47:34;;;;;;;2.00;0.80;;;;;;;;;;5058711;28;20055;-86
2022/10/06 09:50:02;;;;;;;6.20;1.15;;;;;;;;;;5076284;28;20423;-87
2022/10/06 09:52:30;;;;;;;3.10;0.60;;;;;;;;;;5058475;28;20049;-88
2022/10/06 09:55:14;;;;;;;2.83;0.70;;;;;;;;;;5058301;28;20052;-87
2022/10/06 09:57:48;;;;;;;2.03;0.60;;;;;;;;;;5076171;28;20048;-88
2022/10/06 10:00:26;;;;;;;1.58;0.70;;;;;;;;;;5059025;28;20044;-88
2022/10/06 10:03:02;;;;;;;4.10;0.60;;;;;;;;;;5058350;28;20049;-92
2022/10/06 10:05:31;;;;;;;2.88;0.60;;;;;;;;;;5041874;28;20056;-88
2022/10/06 10:08:13;;;;;;;2.45;0.60;;;;;;;;;;5058647;28;20049;-90
2022/10/06 10:10:41;;;;;;;3.13;0.90;;;;;;;;;;5058037;28;20049;-87
2022/10/06 10:13:17;;;;;;;1.65;0.60;;;;;;;;;;5058125;28;20484;-88
2022/10/06 10:15:53;;;;;;;2.38;0.40;;;;;;;;;;5057808;28;20409;-88
2022/10/06 10:18:25;;;;;;;1.70;0.80;;;;;;;;;;5057947;28;20106;-88
2022/10/06 10:20:56;;;;;;;4.60;0.93;;;;;;;;;;5075761;28;20568;-87
2022/10/06 10:23:28;;;;;;;7.45;1.05;;;;;;;;;;5075581;28;20466;-89
2022/10/06 10:26:16;;;;;;;3.92;0.80;;;;;;;;;;5058137;28;20079;-86
2022/10/06 10:28:49;;;;;;;4.75;1.02;;;;;;;;;;5075335;28;20055;-87
2022/10/06 10:31:48;;;;;;;1.85;0.98;;;;;;;;;;5057803;28;20044;-87
2022/10/06 10:34:37;;;;;;;3.10;0.65;;;;;;;;;;5063569;28;20463;-88
2022/10/06 10:37:08;;;;;;;1.98;0.60;;;;;;;;;;5075324;28;20046;-88
2022/10/06 10:39:44;;;;;;;7.82;0.80;;;;;;;;;;5057975;28;20049;-88
2022/10/06 10:42:16;;;;;;;2.50;0.70;;;;;;;;;;5075169;28;20053;-88
2022/10/06 10:44:50;;;;;;;2.90;0.90;;;;;;;;;;5056199;28;20048;-86
2022/10/06 10:47:21;;;;;;;2.35;0.45;;;;;;;;;;5074607;28;20056;-88
2022/10/06 10:49:53;;;;;;;1.73;0.73;;;;;;;;;;5057256;28;20055;-86
2022/10/06 10:52:23;;;;;;;4.82;0.70;;;;;;;;;;5057243;28;20481;-87
2022/10/06 10:54:56;;;;;;;1.60;0.70;;;;;;;;;;5074795;28;20055;-87
2022/10/06 10:57:24;;;;;;;;;;;;;;;;;;5057376;28;20106;-87
2022/10/06 11:00:02;;;;;;;2.20;0.60;;;;;;;;;;5074564;28;19943;-87
2022/10/06 11:02:30;;;;;;;0.82;0.60;;;;;;;;;;5057543;28;20044;-87
2022/10/06 11:05:01;;;;;;;0.70;0.35;;;;;;;;;;5074591;28;20048;-88
2022/10/06 11:07:34;;;;;;;2.67;0.60;;;;;;;;;;5074988;28;20075;-86
2022/10/06 11:10:10;;;;;;;3.50;0.65;;;;;;;;;;5056544;28;20052;-86
2022/10/06 11:12:37;;;;;;;2.05;1.55;;;;;;;;;;5074525;28;20055;-86
2022/10/06 11:15:12;;;;;;;2.00;0.50;;;;;;;;;;5074293;28;20431;-87
2022/10/06 11:17:49;;;;;;;2.38;0.60;;;;;;;;;;5057068;28;20044;-88
2022/10/06 11:20:25;;;;;;;5.57;0.82;;;;;;;;;;5056500;28;20052;-90
2022/10/06 11:22:52;;;;;;;3.42;0.70;;;;;;;;;;5074267;28;20061;-87
2022/10/06 11:25:35;;;;;;;6.00;1.38;;;;;;;;;;5074172;28;20436;-87
2022/10/06 11:28:20;;;;;;;0.98;0.50;;;;;;;;;;5074193;28;20105;-86
2022/10/06 11:30:47;;;;;;;4.18;0.73;;;;;;;;;;5056383;28;20054;-86
2022/10/06 11:33:19;;;;;;;1.23;0.45;;;;;;;;;;5056243;28;20055;-87
2022/10/06 11:35:47;;;;;;;1.00;0.50;;;;;;;;;;5056613;28;20540;-87
2022/10/06 11:38:27;;;;;;;1.92;0.70;;;;;;;;;;5056376;28;20045;-86
2022/10/06 11:41:07;;;;;;;1.80;0.50;;;;;;;;;;5056740;28;20108;-86
2022/10/06 11:43:43;;;;;;;1.42;0.70;;;;;;;;;;5056505;28;20562;-87
2022/10/06 11:46:10;;;;;;;2.22;0.50;;;;;;;;;;5052546;28;20417;-86
2022/10/06 11:48:37;;;;;;;5.13;1.52;;;;;;;;;;5052814;28;20059;-87
2022/10/06 11:51:16;;;;;;;3.63;0.75;;;;;;;;;;5054036;28;20053;-87
2022/10/06 11:53:46;;;;;;;1.90;0.60;;;;;;;;;;5053460;28;20103;-87
2022/10/06 11:56:16;;;;;;;3.53;0.82;;;;;;;;;;5052787;28;20049;-87
2022/10/06 11:58:52;;;;;;;0.80;0.80;;;;;;;;;;5053610;28;20048;-87
2022/10/06 12:01:38;;;;;;;2.35;0.75;;;;;;;;;;5052444;28;20488;-85
2022/10/06 12:04:08;;;;;;;2.58;1.05;;;;;;;;;;5052530;28;20068;-88
2022/10/06 12:06:41;;;;;;;4.35;1.08;;;;;;;;;;5052411;28;20065;-87
2022/10/06 12:09:09;;;;;;;;;;;;;;;;;;5053801;28;20052;-87
2022/10/06 12:11:41;;;;;;;5.35;1.25;;;;;;;;;;5036025;28;19921;-86
2022/10/06 12:14:15;;;;;;;2.10;0.55;;;;;;;;;;5052475;28;20053;-87
2022/10/06 12:17:10;;;;;;;3.80;0.95;;;;;;;;;;5053400;28;20053;-88
2022/10/06 12:19:57;;;;;;;3.63;0.93;;;;;;;;;;5053583;28;20059;-86
2022/10/06 12:22:30;;;;;;;1.92;0.60;;;;;;;;;;5052161;28;20176;-87
2022/10/06 12:24:57;;;;;;;2.33;0.55;;;;;;;;;;5052359;28;20056;-88
2022/10/06 12:27:30;;;;;;;1.38;0.68;;;;;;;;;;5052211;28;20148;-88
2022/10/06 12:30:05;;;;;;;5.78;0.90;;;;;;;;;;5052228;28;20045;-86
2022/10/06 12:32:51;;;;;;;1.17;0.70;;;;;;;;;;5052239;28;20048;-86
2022/10/06 12:35:18;;;;;;;3.55;0.95;;;;;;;;;;5051793;28;20051;-96
2022/10/06 12:37:51;;;;;;;1.65;0.80;;;;;;;;;;5052069;28;20120;-88
2022/10/06 12:40:42;;;;;;;1.60;0.55;;;;;;;;;;5052137;28;20056;-86
2022/10/06 12:43:19;;;;;;;20.13;2.65;;;;;;;;;;5051965;28;20489;-86
2022/10/06 12:45:56;;;;;;;3.10;1.05;;;;;;;;;;5051545;28;20061;-86
2022/10/06 12:48:30;;;;;;;2.30;0.52;;;;;;;;;;5052189;28;20515;-90
2022/10/06 12:51:01;;;;;;;2.53;0.80;;;;;;;;;;5053441;28;20048;-89
2022/10/06 12:53:31;;;;;;;5.85;0.77;;;;;;;;;;5053250;28;20049;-86
2022/10/06 12:56:01;;;;;;;0.85;0.38;;;;;;;;;;5051853;28;20044;-86
2022/10/06 12:58:31;;;;;;;1.58;0.40;;;;;;;;;;5052369;28;20045;-88
2022/10/06 13:00:59;;;;;;;2.05;0.50;;;;;;;;;;5053027;28;20167;-87
2022/10/06 13:03:28;;;;;;;0.88;0.52;;;;;;;;;;5053231;28;20056;-87
2022/10/06 13:06:02;;;;;;;4.70;1.05;;;;;;;;;;5053299;28;20049;-88
2022/10/06 13:08:31;;;;;;;1.00;0.45;;;;;;;;;;5053569;28;20080;-86
2022/10/06 13:11:17;;;;;;;1.35;0.40;;;;;;;;;;5055683;28;20089;-87
2022/10/06 13:13:48;;;;;;;1.48;0.50;;;;;;;;;;5056629;28;20056;-89
2022/10/06 13:16:19;;;;;;;1.90;0.52;;;;;;;;;;5055639;28;20524;-86
2022/10/06 13:18:47;;;;;;;1.60;0.50;;;;;;;;;;5056931;28;20064;-87
2022/10/06 13:21:15;;;;;;;5.00;0.63;;;;;;;;;;5056291;28;20628;-87
2022/10/06 13:23:42;;;;;;;1.45;0.68;;;;;;;;;;5055566;28;20053;-88
2022/10/06 13:26:13;;;;;;;2.60;0.60;;;;;;;;;;5055491;28;20553;-89
2022/10/06 13:28:43;;;;;;;6.55;0.80;;;;;;;;;;5055676;28;20049;-87
2022/10/06 13:31:26;;;;;;;0.75;0.40;;;;;;;;;;5055207;28;20416;-87
2022/10/06 13:34:02;;;;;;;1.17;0.40;;;;;;;;;;5055482;28;20053;-87
2022/10/06 13:36:37;;;;;;;3.00;0.60;;;;;;;;;;5055688;28;20492;-88
2022/10/06 13:39:05;;;;;;;2.33;0.50;;;;;;;;;;5055552;28;20412;-92
2022/10/06 13:41:37;;;;;;;4.10;0.50;;;;;;;;;;5055652;28;20044;-87
2022/10/06 13:44:07;;;;;;;6.38;0.70;;;;;;;;;;5056382;28;20045;-88
2022/10/06 13:46:40;;;;;;;5.10;0.70;;;;;;;;;;5076444;28;20055;-89
2022/10/06 13:49:20;;;;;;;3.92;0.80;;;;;;;;;;5076417;28;20476;-88
2022/10/06 13:51:49;;;;;;;2.10;0.70;;;;;;;;;;5076683;28;20052;-88
2022/10/06 13:54:23;;;;;;;1.73;0.55;;;;;;;;;;5058324;28;20049;-88
2022/10/06 13:56:52;;;;;;;2.05;0.40;;;;;;;;;;5076378;28;20088;-89
2022/10/06 13:59:28;;;;;;;3.08;0.60;;;;;;;;;;5058863;28;20056;-89
2022/10/06 14:02:01;;;;;;;1.67;0.73;;;;;;;;;;5057353;28;20507;-89
2022/10/06 14:04:29;;;;;;;4.20;0.60;;;;;;;;;;5058431;28;20524;-91
2022/10/06 14:07:01;;;;;;;1.05;0.60;;;;;;;;;;5076208;28;20090;-89
2022/10/06 14:09:30;;;;;;;1.05;0.40;;;;;;;;;;5058224;28;20064;-89
2022/10/06 14:12:06;;;;;;;1.67;0.57;;;;;;;;;;5058509;28;20051;-89
2022/10/06 14:14:33;;;;;;;5.22;0.73;;;;;;;;;;5075748;28;20052;-89
2022/10/06 14:17:00;;;;;;;6.57;0.88;;;;;;;;;;5075795;28;20056;-89
2022/10/06 14:19:41;;;;;;;5.53;1.40;;;;;;;;;;5056686;28;20044;-88
2022/10/06 14:22:44;;;;;;;4.70;0.90;;;;;;;;;;5075699;28;20049;-90
2022/10/06 14:25:13;;;;;;;1.98;0.50;;;;;;;;;;4994357;28;20061;-90
2022/10/06 14:27:41;;;;;;;5.60;0.68;;;;;;;;;;5047646;28;20049;-89
2022/10/06 14:30:08;;;;;;;2.42;0.50;;;;;;;;;;5057679;28;20056;-92
2022/10/06 14:32:37;;;;;;;3.03;0.80;;;;;;;;;;5057883;28;20052;-89
2022/10/06 14:35:06;;;;;;;2.15;1.35;;;;;;;;;;5057869;28;20102;-89
2022/10/06 14:37:33;;;;;;;1.80;0.93;;;;;;;;;;5075588;28;20436;-89
2022/10/06 14:40:00;;;;;;;2.60;1.25;;;;;;;;;;5075250;28;20060;-88
2022/10/06 14:42:28;;;;;;;9.48;1.35;;;;;;;;;;5075259;28;20068;-89
2022/10/06 14:44:56;;;;;;;7.68;1.25;;;;;;;;;;5074939;28;20060;-88
2022/10/06 14:47:24;;;;;;;6.50;1.30;;;;;;;;;;5057543;28;20477;-90
2022/10/06 14:49:51;;;;;;;3.13;0.60;;;;;;;;;;5057466;28;20048;-89
2022/10/06 14:52:18;;;;;;;5.13;0.80;;;;;;;;;;5057530;28;20408;-89
2022/10/06 14:54:45;;;;;;;4.68;0.93;;;;;;;;;;5057623;28;20449;-89
2022/10/06 14:57:13;;;;;;;19.17;1.40;;;;;;;;;;5074521;28;20048;-88
2022/10/06 14:59:40;;;;;;;3.50;0.73;;;;;;;;;;5057493;28;20052;-89
2022/10/06 15:02:09;;;;;;;4.53;0.65;;;;;;;;;;5074905;28;20049;-89
2022/10/06 15:04:36;;;;;;;11.93;1.33;;;;;;;;;;5074877;28;20135;-89
2022/10/06 15:09:49;;;;;;;5.40;0.80;;;;;;;;;;5074566;28;20052;-88
2022/10/06 15:12:16;;;;;;;8.60;1.02;;;;;;;;;;5074845;28;20500;-89
2022/10/06 15:14:44;;;;;;;9.63;1.60;;;;;;;;;;5061807;28;20052;-88
2022/10/06 15:17:11;;;;;;;2.10;0.70;;;;;;;;;;5057320;28;20067;-89
2022/10/06 15:19:39;;;;;;;3.70;1.00;;;;;;;;;;5057085;28;20045;-90